createdAt,value
2018-07-31T00:02:23.102Z,36.87
2018-07-31T00:04:49.132Z,37.04
2018-07-31T00:07:15.126Z,36.57
2018-07-31T00:09:41.086Z,36.59
2018-07-31T00:12:07.163Z,36.07
2018-07-31T00:14:33.194Z,35.80
2018-07-31T00:16:59.222Z,35.75
2018-07-31T00:19:25.287Z,35.01
2018-07-31T00:21:51.339Z,35.83
2018-07-31T00:24:18.080Z,35.85
2018-07-31T00:26:44.778Z,35.55
2018-07-31T00:29:11.316Z,35.20
2018-07-31T00:31:37.302Z,37.65
2018-07-31T00:34:03.252Z,38.21
2018-07-31T00:36:29.225Z,39.15
2018-07-31T00:38:55.227Z,39.10
2018-07-31T00:41:21.222Z,38.35
2018-07-31T00:43:47.220Z,37.51
2018-07-31T00:46:13.227Z,37.16
2018-07-31T00:48:39.263Z,37.30
2018-07-31T00:51:05.273Z,38.05
2018-07-31T00:53:31.237Z,38.30
2018-07-31T00:55:57.279Z,37.99
2018-07-31T00:58:23.318Z,37.16
2018-07-31T01:00:49.290Z,36.80
2018-07-31T01:03:15.290Z,37.98
2018-07-31T01:05:41.291Z,36.94
2018-07-31T01:08:07.355Z,37.21
2018-07-31T01:10:34.429Z,37.43
2018-07-31T01:13:00.422Z,37.24
2018-07-31T01:15:26.464Z,37.25
2018-07-31T01:17:52.477Z,37.83
2018-07-31T01:20:18.541Z,38.41
2018-07-31T01:22:44.549Z,39.14
2018-07-31T01:25:10.626Z,39.28
2018-07-31T01:27:36.666Z,38.67
2018-07-31T01:30:03.295Z,38.83
2018-07-31T01:32:29.329Z,38.76
2018-07-31T01:34:55.382Z,38.46
2018-07-31T01:37:21.383Z,38.29
2018-07-31T01:39:47.424Z,38.61
2018-07-31T01:42:13.421Z,38.69
2018-07-31T01:44:39.737Z,38.88
2018-07-31T01:47:05.790Z,38.52
2018-07-31T01:49:31.756Z,38.87
2018-07-31T01:51:57.725Z,37.18
2018-07-31T01:54:23.717Z,37.29
2018-07-31T01:56:49.711Z,37.77
2018-07-31T01:59:15.692Z,36.65
2018-07-31T02:01:41.658Z,36.70
2018-07-31T02:04:07.640Z,36.91
2018-07-31T02:06:33.598Z,36.68
2018-07-31T02:08:59.572Z,36.24
2018-07-31T02:11:25.566Z,36.67
2018-07-31T02:13:51.574Z,37.03
2018-07-31T02:16:17.624Z,36.82
2018-07-31T02:18:43.647Z,37.04
2018-07-31T02:21:09.629Z,36.23
2018-07-31T02:23:35.634Z,36.43
2018-07-31T02:26:01.698Z,35.80
2018-07-31T02:28:27.794Z,35.73
2018-07-31T02:30:53.754Z,36.74
2018-07-31T02:33:19.745Z,36.61
2018-07-31T02:35:45.723Z,37.29
2018-07-31T02:38:11.701Z,37.76
2018-07-31T02:40:37.739Z,36.94
2018-07-31T02:43:03.748Z,37.25
2018-07-31T02:45:29.709Z,37.84
2018-07-31T02:47:55.714Z,38.07
2018-07-31T02:50:21.685Z,38.73
2018-07-31T02:52:47.709Z,39.19
2018-07-31T02:55:13.742Z,39.39
2018-07-31T02:57:39.722Z,38.23
2018-07-31T03:00:05.706Z,38.08
2018-07-31T03:02:31.666Z,37.61
2018-07-31T03:04:57.639Z,36.69
2018-07-31T03:07:23.648Z,36.87
2018-07-31T03:09:49.620Z,36.45
2018-07-31T03:12:15.640Z,36.16
2018-07-31T03:14:41.612Z,36.30
2018-07-31T03:17:08.898Z,36.66
2018-07-31T03:19:34.952Z,37.48
2018-07-31T03:22:00.991Z,37.57
2018-07-31T03:24:26.982Z,36.99
2018-07-31T03:26:52.965Z,37.85
2018-07-31T03:29:18.997Z,38.15
2018-07-31T03:31:44.960Z,38.33
2018-07-31T03:34:11.013Z,39.04
2018-07-31T03:36:37.019Z,39.37
2018-07-31T03:39:03.045Z,39.01
2018-07-31T03:41:29.040Z,39.46
2018-07-31T03:43:55.019Z,39.87
2018-07-31T03:46:21.007Z,39.87
2018-07-31T03:48:47.010Z,39.33
2018-07-31T03:51:13.042Z,39.50
2018-07-31T03:53:39.016Z,39.65
2018-07-31T03:56:05.016Z,38.21
2018-07-31T03:58:30.982Z,38.22
2018-07-31T04:00:56.957Z,39.00
2018-07-31T04:03:22.945Z,38.75
2018-07-31T04:05:50.577Z,37.86
2018-07-31T04:08:16.566Z,38.22
2018-07-31T04:10:42.514Z,38.66
2018-07-31T04:13:08.468Z,38.81
2018-07-31T04:15:34.456Z,39.64
2018-07-31T04:18:00.513Z,38.50
2018-07-31T04:20:26.557Z,38.54
2018-07-31T04:22:53.436Z,38.85
2018-07-31T04:25:19.428Z,39.15
2018-07-31T04:27:45.364Z,39.97
2018-07-31T04:30:11.467Z,39.64
2018-07-31T04:32:37.576Z,39.59
2018-07-31T04:35:03.616Z,39.66
2018-07-31T04:37:29.665Z,39.57
2018-07-31T04:39:55.622Z,38.98
2018-07-31T04:42:21.593Z,38.34
2018-07-31T04:44:47.594Z,37.75
2018-07-31T04:47:13.573Z,37.52
2018-07-31T04:49:39.545Z,37.53
2018-07-31T04:52:05.565Z,36.40
2018-07-31T04:54:31.799Z,35.47
2018-07-31T04:56:57.816Z,34.67
2018-07-31T04:59:23.814Z,35.38
2018-07-31T05:01:49.799Z,35.02
2018-07-31T05:04:15.806Z,34.18
2018-07-31T05:06:41.774Z,34.79
2018-07-31T05:09:07.778Z,34.56
2018-07-31T05:11:33.756Z,34.12
2018-07-31T05:13:59.715Z,33.71
2018-07-31T05:16:25.767Z,34.08
2018-07-31T05:18:51.745Z,33.31
2018-07-31T05:21:17.800Z,33.76
2018-07-31T05:23:43.778Z,33.76
2018-07-31T05:26:09.794Z,33.55
2018-07-31T05:28:35.772Z,33.70
2018-07-31T05:31:01.775Z,32.86
2018-07-31T05:33:27.749Z,32.94
2018-07-31T05:35:53.731Z,31.52
2018-07-31T05:38:19.689Z,32.31
2018-07-31T05:40:45.663Z,32.68
2018-07-31T05:43:11.620Z,32.40
2018-07-31T05:45:38.348Z,32.45
2018-07-31T05:48:04.299Z,31.89
2018-07-31T05:50:30.268Z,31.79
2018-07-31T05:52:56.323Z,31.19
2018-07-31T05:55:22.294Z,31.31
2018-07-31T05:57:48.264Z,31.48
2018-07-31T06:00:14.244Z,30.45
2018-07-31T06:02:40.191Z,30.96
2018-07-31T06:05:06.209Z,31.56
2018-07-31T06:07:32.193Z,32.14
2018-07-31T06:09:58.140Z,31.77
2018-07-31T06:12:24.119Z,32.10
2018-07-31T06:14:50.093Z,31.24
2018-07-31T06:17:16.123Z,30.23
2018-07-31T06:19:42.099Z,30.02
2018-07-31T06:22:08.144Z,29.48
2018-07-31T06:24:34.173Z,30.19
2018-07-31T06:27:00.212Z,30.57
2018-07-31T06:29:26.134Z,29.74
2018-07-31T06:31:52.109Z,29.72
2018-07-31T06:34:18.861Z,29.32
2018-07-31T06:36:44.865Z,28.96
2018-07-31T06:39:10.853Z,28.47
2018-07-31T06:41:37.924Z,28.24
2018-07-31T06:44:03.947Z,28.58
2018-07-31T06:46:29.936Z,27.42
2018-07-31T06:48:55.928Z,28.05
2018-07-31T06:51:22.023Z,28.08
2018-07-31T07:01:23.754Z,25.98
2018-07-31T07:03:49.766Z,25.93
2018-07-31T07:06:15.810Z,26.38
2018-07-31T07:08:41.786Z,25.31
2018-07-31T07:11:07.877Z,24.30
2018-07-31T07:13:35.917Z,24.41
2018-07-31T07:16:06.222Z,24.33
2018-07-31T07:18:32.265Z,24.14
2018-07-31T07:20:58.283Z,23.75
2018-07-31T07:23:24.251Z,23.22
2018-07-31T07:25:50.261Z,23.80
2018-07-31T07:28:16.894Z,23.30
2018-07-31T07:30:42.944Z,23.91
2018-07-31T07:33:09.787Z,23.38
2018-07-31T07:35:36.609Z,23.48
2018-07-31T07:38:09.516Z,23.01
2018-07-31T07:40:35.582Z,22.72
2018-07-31T07:43:01.583Z,23.66
2018-07-31T07:45:27.627Z,23.18
2018-07-31T07:47:53.917Z,22.50
2018-07-31T07:50:19.986Z,22.10
2018-07-31T07:52:45.985Z,22.27
2018-07-31T07:55:12.171Z,21.97
2018-07-31T08:00:12.872Z,21.88
2018-07-31T08:02:38.875Z,21.94
2018-07-31T08:05:04.943Z,21.42
2018-07-31T08:07:30.934Z,22.01
2018-07-31T08:09:56.877Z,21.63
2018-07-31T08:12:22.860Z,21.73
2018-07-31T08:14:48.819Z,21.58
2018-07-31T08:17:14.808Z,21.34
2018-07-31T08:19:40.763Z,21.71
2018-07-31T08:22:06.764Z,21.57
2018-07-31T08:24:32.747Z,21.71
2018-07-31T08:26:58.740Z,21.85
2018-07-31T08:29:24.739Z,21.57
2018-07-31T08:31:50.794Z,21.70
2018-07-31T08:34:16.781Z,20.68
2018-07-31T08:36:42.739Z,20.87
2018-07-31T08:39:08.756Z,22.23
2018-07-31T08:41:34.701Z,22.55
2018-07-31T08:44:00.637Z,22.87
2018-07-31T08:46:26.606Z,23.24
2018-07-31T08:48:52.573Z,21.65
2018-07-31T08:51:18.608Z,22.61
2018-07-31T08:53:44.654Z,23.31
2018-07-31T08:56:10.624Z,23.70
2018-07-31T08:58:36.636Z,23.40
2018-07-31T09:01:02.595Z,25.29
2018-07-31T09:03:28.543Z,24.25
2018-07-31T09:05:54.485Z,23.87
2018-07-31T09:08:20.521Z,24.98
2018-07-31T09:10:46.467Z,24.11
2018-07-31T09:13:12.484Z,24.39
2018-07-31T09:15:38.474Z,24.22
2018-07-31T09:18:04.438Z,24.39
2018-07-31T09:20:30.423Z,24.45
2018-07-31T09:22:56.380Z,24.60
2018-07-31T09:25:22.330Z,25.11
2018-07-31T09:27:48.392Z,25.26
2018-07-31T09:30:14.336Z,23.73
2018-07-31T09:32:40.287Z,23.73
2018-07-31T09:35:06.275Z,23.29
2018-07-31T09:37:32.251Z,24.25
2018-07-31T09:39:58.205Z,24.57
2018-07-31T09:42:24.154Z,24.41
2018-07-31T09:44:50.150Z,24.41
2018-07-31T09:47:16.137Z,24.61
2018-07-31T09:49:42.119Z,24.08
2018-07-31T09:52:08.102Z,24.03
2018-07-31T09:54:34.063Z,24.67
2018-07-31T09:57:00.014Z,24.50
2018-07-31T09:59:25.994Z,24.55
2018-07-31T10:01:51.976Z,24.88
2018-07-31T10:04:17.939Z,25.28
2018-07-31T10:06:43.878Z,25.17
2018-07-31T10:09:09.836Z,24.87
2018-07-31T10:11:35.794Z,23.91
2018-07-31T10:14:01.789Z,23.89
2018-07-31T10:16:27.779Z,23.62
2018-07-31T10:18:53.751Z,23.76
2018-07-31T10:21:19.778Z,24.12
2018-07-31T10:23:45.736Z,24.08
2018-07-31T10:26:11.716Z,23.43
2018-07-31T10:28:37.709Z,24.08
2018-07-31T10:31:03.755Z,24.08
2018-07-31T10:33:29.685Z,24.19
2018-07-31T10:35:55.688Z,24.30
2018-07-31T10:38:21.696Z,24.23
2018-07-31T10:40:47.662Z,24.57
2018-07-31T10:43:13.617Z,23.94
2018-07-31T10:45:39.643Z,23.71
2018-07-31T10:48:05.626Z,23.88
2018-07-31T10:50:31.666Z,23.89
2018-07-31T10:52:57.564Z,24.31
2018-07-31T10:55:23.540Z,23.92
2018-07-31T10:57:49.528Z,24.47
2018-07-31T11:00:15.476Z,24.36
2018-07-31T11:02:41.484Z,24.84
2018-07-31T11:05:07.428Z,24.71
2018-07-31T11:07:33.424Z,24.60
2018-07-31T11:09:59.378Z,24.33
2018-07-31T11:12:25.324Z,24.26
2018-07-31T11:14:51.287Z,23.99
2018-07-31T11:17:17.349Z,24.23
2018-07-31T11:19:43.331Z,23.90
2018-07-31T11:22:09.289Z,23.96
2018-07-31T11:24:35.248Z,26.85
2018-07-31T11:27:01.202Z,27.82
2018-07-31T11:29:27.193Z,28.36
2018-07-31T11:31:53.125Z,28.90
2018-07-31T11:34:19.111Z,29.08
2018-07-31T11:36:45.093Z,29.51
2018-07-31T11:39:11.058Z,29.47
2018-07-31T11:41:37.009Z,29.04
2018-07-31T11:44:02.991Z,28.62
2018-07-31T11:46:28.936Z,26.40
2018-07-31T11:48:54.889Z,29.09
2018-07-31T11:51:20.876Z,29.20
2018-07-31T11:53:46.870Z,29.54
2018-07-31T11:56:12.893Z,29.59
2018-07-31T11:58:38.847Z,29.57
2018-07-31T12:01:04.813Z,29.69
2018-07-31T12:03:30.790Z,29.07
2018-07-31T12:05:56.772Z,29.25
2018-07-31T12:08:23.817Z,29.35
2018-07-31T12:10:49.762Z,28.84
2018-07-31T12:13:15.729Z,29.47
2018-07-31T12:15:41.725Z,29.32
2018-07-31T12:18:07.715Z,29.14
2018-07-31T12:20:33.729Z,28.91
2018-07-31T12:22:59.701Z,29.34
2018-07-31T12:25:25.683Z,29.10
2018-07-31T12:27:51.637Z,29.18
2018-07-31T12:30:17.590Z,28.85
2018-07-31T12:32:43.616Z,29.02
2018-07-31T12:35:09.616Z,29.15
2018-07-31T12:37:35.576Z,28.61
2018-07-31T12:40:01.870Z,27.82
2018-07-31T12:42:27.847Z,27.89
2018-07-31T12:44:53.782Z,27.34
2018-07-31T12:47:19.901Z,28.14
2018-07-31T12:49:45.854Z,27.61
2018-07-31T12:52:11.825Z,30.55
2018-07-31T12:54:37.785Z,29.18
2018-07-31T12:57:03.735Z,29.00
2018-07-31T12:59:29.709Z,29.73
2018-07-31T13:01:55.718Z,29.45
2018-07-31T13:04:21.630Z,27.29
2018-07-31T13:06:47.582Z,26.88
2018-07-31T13:09:13.540Z,26.72
2018-07-31T13:11:39.491Z,26.41
2018-07-31T13:14:05.433Z,26.62
2018-07-31T13:16:31.381Z,25.76
2018-07-31T13:18:57.399Z,26.35
2018-07-31T13:21:23.348Z,26.12
2018-07-31T13:23:49.312Z,25.73
2018-07-31T13:26:15.280Z,25.29
2018-07-31T13:28:41.240Z,24.46
2018-07-31T13:31:07.198Z,24.85
2018-07-31T13:33:33.216Z,25.28
2018-07-31T13:38:31.482Z,24.65
2018-07-31T13:40:57.416Z,25.07
2018-07-31T13:43:23.490Z,24.82
2018-07-31T13:45:49.451Z,24.95
2018-07-31T13:48:15.473Z,24.10
2018-07-31T13:50:41.465Z,24.10
2018-07-31T13:53:07.442Z,24.51
2018-07-31T13:55:33.525Z,22.99
2018-07-31T13:57:59.543Z,23.90
2018-07-31T14:00:25.562Z,24.05
2018-07-31T14:02:51.524Z,24.00
2018-07-31T14:05:17.551Z,22.83
2018-07-31T14:07:44.544Z,23.51
2018-07-31T14:10:10.516Z,23.92
2018-07-31T14:12:36.487Z,23.29
2018-07-31T14:15:02.503Z,23.86
2018-07-31T14:17:28.469Z,22.78
2018-07-31T14:19:54.447Z,23.33
2018-07-31T14:22:20.407Z,23.14
2018-07-31T14:24:46.431Z,23.30
2018-07-31T14:27:12.400Z,23.48
2018-07-31T14:29:38.398Z,23.55
2018-07-31T14:32:04.353Z,23.42
2018-07-31T14:34:30.325Z,23.26
2018-07-31T14:39:28.764Z,23.25
2018-07-31T14:41:54.739Z,23.37
2018-07-31T14:44:20.719Z,23.26
2018-07-31T14:46:46.693Z,23.54
2018-07-31T14:49:12.668Z,24.16
2018-07-31T14:51:38.604Z,23.54
2018-07-31T14:54:04.617Z,23.67
2018-07-31T14:56:30.596Z,23.57
2018-07-31T14:58:56.721Z,23.44
2018-07-31T15:01:22.699Z,23.46
2018-07-31T15:03:48.636Z,23.74
2018-07-31T15:06:14.684Z,23.57
2018-07-31T15:08:40.679Z,23.80
2018-07-31T15:11:06.794Z,23.76
2018-07-31T15:13:34.773Z,23.81
2018-07-31T15:16:00.778Z,23.09
2018-07-31T15:18:29.013Z,23.26
2018-07-31T15:20:55.027Z,23.51
2018-07-31T15:23:22.181Z,23.55
2018-07-31T15:25:48.154Z,23.53
2018-07-31T15:28:14.119Z,23.63
2018-07-31T15:30:40.141Z,23.50
2018-07-31T15:33:06.637Z,23.33
2018-07-31T15:35:32.637Z,23.14
2018-07-31T15:37:58.623Z,23.73
2018-07-31T15:40:24.624Z,23.40
2018-07-31T15:42:50.591Z,23.24
2018-07-31T15:45:16.599Z,22.68
2018-07-31T15:47:42.644Z,23.10
2018-07-31T15:50:08.644Z,23.04
2018-07-31T15:52:34.645Z,22.73
2018-07-31T15:55:01.663Z,22.98
2018-07-31T15:57:27.670Z,22.84
2018-07-31T15:59:53.691Z,22.13
2018-07-31T16:02:19.673Z,22.50
2018-07-31T16:04:45.660Z,21.89
2018-07-31T16:09:44.320Z,22.59
2018-07-31T16:12:10.309Z,22.54
2018-07-31T16:14:36.477Z,22.80
2018-07-31T16:17:04.587Z,22.41
2018-07-31T16:19:30.614Z,22.22
2018-07-31T16:21:56.600Z,22.71
2018-07-31T16:24:22.609Z,22.82
2018-07-31T16:26:52.147Z,22.65
2018-07-31T16:29:18.113Z,22.96
2018-07-31T16:31:44.110Z,22.48
2018-07-31T16:34:10.085Z,22.26
2018-07-31T16:36:36.060Z,22.42
2018-07-31T16:39:02.047Z,22.80
2018-07-31T16:41:28.101Z,22.63
2018-07-31T16:43:54.593Z,22.72
2018-07-31T16:46:20.825Z,22.36
2018-07-31T16:48:46.816Z,22.82
2018-07-31T16:51:12.927Z,22.66
2018-07-31T16:53:38.892Z,22.54
2018-07-31T16:56:09.364Z,22.02
2018-07-31T16:58:35.408Z,22.03
2018-07-31T17:01:01.374Z,21.63
2018-07-31T17:03:27.349Z,22.08
2018-07-31T17:05:53.311Z,22.47
2018-07-31T17:08:19.280Z,22.33
2018-07-31T17:13:17.699Z,22.11
2018-07-31T17:15:43.665Z,21.77
2018-07-31T17:18:09.740Z,22.48
2018-07-31T17:20:36.264Z,22.12
2018-07-31T17:23:02.376Z,21.51
2018-07-31T17:25:28.559Z,22.12
2018-07-31T17:27:54.567Z,22.31
2018-07-31T17:30:20.541Z,22.30
2018-07-31T17:32:46.573Z,22.04
2018-07-31T17:35:12.643Z,21.13
2018-07-31T17:37:38.563Z,21.57
2018-07-31T17:40:04.540Z,21.68
2018-07-31T17:42:30.511Z,21.40
2018-07-31T17:44:56.479Z,21.51
2018-07-31T17:47:22.485Z,21.68
2018-07-31T17:49:48.582Z,21.27
2018-07-31T17:52:14.607Z,21.54
2018-07-31T17:57:19.643Z,27.69
2018-07-31T17:59:45.741Z,23.41
2018-07-31T18:02:11.770Z,22.41
2018-07-31T18:04:37.762Z,20.67
2018-07-31T18:07:03.824Z,21.81
2018-07-31T18:09:30.090Z,21.89
2018-07-31T18:11:56.437Z,21.51
2018-07-31T18:14:22.855Z,20.76
2018-07-31T18:16:48.803Z,21.50
2018-07-31T18:19:14.820Z,20.16
2018-07-31T18:21:40.863Z,25.37
2018-07-31T18:24:07.020Z,30.74
2018-07-31T18:34:08.270Z,28.56
2018-07-31T18:36:35.409Z,24.23
2018-07-31T18:39:01.578Z,26.01
2018-07-31T18:44:00.268Z,25.86
2018-07-31T18:46:37.263Z,25.83
2018-07-31T18:57:12.779Z,26.52
2018-07-31T19:03:48.924Z,25.34
2018-07-31T19:06:15.272Z,24.95
2018-07-31T19:08:42.010Z,24.11
2018-07-31T19:11:11.206Z,24.58
2018-07-31T19:13:37.400Z,25.26
2018-07-31T19:16:03.468Z,25.58
2018-07-31T19:18:32.543Z,27.11
2018-07-31T19:20:58.653Z,28.48
2018-07-31T19:23:25.324Z,28.83
2018-07-31T19:25:51.709Z,29.20
2018-07-31T19:28:18.046Z,30.16
2018-07-31T19:30:44.103Z,30.47
2018-07-31T19:33:10.795Z,30.98
2018-07-31T19:35:36.868Z,31.33
2018-07-31T19:38:04.164Z,30.50
2018-07-31T19:40:30.356Z,31.99
2018-07-31T19:42:56.391Z,28.43
2018-07-31T19:45:22.471Z,29.79
2018-07-31T19:47:48.825Z,30.49
2018-07-31T19:50:15.665Z,30.10
2018-07-31T19:52:41.788Z,30.25
2018-07-31T19:55:07.910Z,28.16
2018-07-31T19:57:36.392Z,26.53
2018-07-31T20:00:02.625Z,25.81
2018-07-31T20:02:28.729Z,25.50
2018-07-31T20:04:54.865Z,25.53
2018-07-31T20:07:22.791Z,26.42
2018-07-31T20:09:49.164Z,25.16
2018-07-31T20:12:15.772Z,25.29
2018-07-31T20:14:41.958Z,24.38
2018-07-31T20:17:08.027Z,23.52
2018-07-31T20:19:35.153Z,23.89
2018-07-31T20:22:01.274Z,23.75
2018-07-31T20:24:27.515Z,23.99
2018-07-31T20:26:53.679Z,24.32
2018-07-31T20:29:24.474Z,25.16
2018-07-31T20:31:51.377Z,24.79
2018-07-31T20:34:17.701Z,25.03
2018-07-31T20:36:45.478Z,24.57
2018-07-31T20:39:11.794Z,24.70
2018-07-31T20:41:38.100Z,24.79
2018-07-31T20:44:07.619Z,25.52
2018-07-31T20:46:33.745Z,25.76
2018-07-31T20:49:01.050Z,26.94
2018-07-31T20:51:27.113Z,27.08
2018-07-31T20:53:53.107Z,27.33
2018-07-31T20:56:19.224Z,27.82
2018-07-31T20:58:47.960Z,27.83
2018-07-31T21:01:14.037Z,27.45
2018-07-31T21:03:40.126Z,27.84
2018-07-31T21:06:06.276Z,28.36
2018-07-31T21:08:32.341Z,28.44
2018-07-31T21:10:58.315Z,27.00
2018-07-31T21:13:24.312Z,26.78
2018-07-31T21:15:50.350Z,26.28
2018-07-31T21:18:16.383Z,26.59
2018-07-31T21:20:42.407Z,26.08
2018-07-31T21:23:08.407Z,26.51
2018-07-31T21:25:34.440Z,26.67
2018-07-31T21:28:00.460Z,26.75
2018-07-31T21:30:26.455Z,27.34
2018-07-31T21:32:52.440Z,27.19
2018-07-31T21:35:18.460Z,27.52
2018-07-31T21:37:44.425Z,27.39
2018-07-31T21:40:10.407Z,27.10
2018-07-31T21:42:37.506Z,27.33
2018-07-31T21:45:03.474Z,27.43
2018-07-31T21:47:29.542Z,27.49
2018-07-31T21:49:55.495Z,28.05
2018-07-31T21:52:21.499Z,28.06
2018-07-31T21:54:50.423Z,28.19
2018-07-31T21:57:16.485Z,28.38
2018-07-31T21:59:42.547Z,28.76
2018-07-31T22:02:09.629Z,28.66
2018-07-31T22:04:35.630Z,29.30
2018-07-31T22:07:01.632Z,28.83
2018-07-31T22:09:27.632Z,28.75
2018-07-31T22:11:53.601Z,28.47
2018-07-31T22:14:19.569Z,28.21
2018-07-31T22:16:45.527Z,28.86
2018-07-31T22:19:11.508Z,29.60
2018-07-31T22:21:37.870Z,30.64
2018-07-31T22:24:03.867Z,29.89
2018-07-31T22:26:29.853Z,29.68
2018-07-31T22:28:55.802Z,29.34
2018-07-31T22:31:21.791Z,29.67
2018-07-31T22:33:47.732Z,29.28
2018-07-31T22:36:13.715Z,29.04
2018-07-31T22:38:39.703Z,29.75
2018-07-31T22:41:05.679Z,30.46
2018-07-31T22:43:31.643Z,30.02
2018-07-31T22:45:57.617Z,30.20
2018-07-31T22:48:23.563Z,29.79
2018-07-31T22:50:49.533Z,30.08
2018-07-31T22:53:15.497Z,30.06
2018-07-31T22:55:41.456Z,30.34
2018-07-31T22:58:07.536Z,29.73
2018-07-31T23:00:33.388Z,29.61
2018-07-31T23:02:59.343Z,29.48
2018-07-31T23:05:25.321Z,29.42
2018-07-31T23:07:51.361Z,29.54
2018-07-31T23:10:17.360Z,29.33
2018-07-31T23:12:43.332Z,30.94
2018-07-31T23:15:09.284Z,30.09
2018-07-31T23:17:35.257Z,30.40
2018-07-31T23:20:01.227Z,29.96
2018-07-31T23:22:27.205Z,31.00
2018-07-31T23:24:53.173Z,30.33
2018-07-31T23:27:19.133Z,30.64
2018-07-31T23:29:45.116Z,31.40
2018-07-31T23:32:11.081Z,31.49
2018-07-31T23:34:37.051Z,31.29
2018-07-31T23:37:03.030Z,31.57
2018-07-31T23:39:29.041Z,31.19
2018-07-31T23:41:55.027Z,31.83
2018-07-31T23:44:20.987Z,32.52
2018-07-31T23:46:46.960Z,32.16
2018-07-31T23:49:12.929Z,31.76
2018-07-31T23:51:38.923Z,31.31
2018-07-31T23:54:04.900Z,31.40
2018-07-31T23:56:30.861Z,32.26
2018-07-31T23:58:56.824Z,33.69
